Time;durP1;ratioP1;P1;durP2;ratioP2;P2;SDS_P1;SDS_P2;PMS_P1;PMS_P2;Temp;Humidity;BMP_temperature;BMP_pressure;BME280_temperature;BME280_humidity;BME280_pressure;Samples;Min_cycle;Max_cycle;Signal;HPM_P1;HPM_P2
2023/11/23 00:00:09;;;;;;;4.33;3.50;;;1.70;99.90;1.40;101184.00;;;;4952066;28;88547;-67
2023/11/23 00:02:35;;;;;;;4.23;3.07;;;1.60;99.90;1.30;101184.00;;;;4953644;28;88094;-68
2023/11/23 00:05:01;;;;;;;3.80;2.90;;;1.60;99.90;1.40;101175.00;;;;4951591;28;88061;-67
2023/11/23 00:07:26;;;;;;;4.30;3.57;;;1.70;99.90;1.40;101164.00;;;;4952143;28;90738;-66
2023/11/23 00:09:52;;;;;;;5.03;3.37;;;1.70;99.90;1.40;101146.00;;;;4950542;28;117521;-69
2023/11/23 00:12:18;;;;;;;4.77;3.33;;;1.70;99.90;1.40;101152.00;;;;4958079;28;110648;-67
2023/11/23 00:14:44;;;;;;;4.57;3.60;;;1.70;99.90;1.40;101143.00;;;;4952278;28;87809;-67
2023/11/23 00:17:10;;;;;;;5.60;3.63;;;2.20;99.90;1.50;101147.00;;;;4949605;28;109635;-67
2023/11/23 00:19:35;;;;;;;3.90;3.27;;;1.70;99.90;1.50;101138.00;;;;4953365;28;115521;-68
2023/11/23 00:22:01;;;;;;;5.43;3.53;;;1.80;99.90;1.60;101138.00;;;;4950660;28;112952;-68
2023/11/23 00:24:27;;;;;;;6.80;3.33;;;1.80;99.90;1.60;101137.00;;;;4948042;28;107870;-68
2023/11/23 00:26:53;;;;;;;6.83;4.30;;;1.80;99.90;1.60;101125.00;;;;4950900;28;116101;-67
2023/11/23 00:29:22;;;;;;;6.10;3.60;;;1.90;99.90;1.60;101122.00;;;;4953358;28;89087;-70
2023/11/23 00:31:48;;;;;;;6.43;3.60;;;1.90;99.90;1.60;101116.00;;;;4949820;28;90413;-66
2023/11/23 00:34:13;;;;;;;6.27;3.87;;;1.90;99.90;1.60;101114.00;;;;4949549;28;110022;-69
2023/11/23 00:36:42;;;;;;;4.13;2.43;;;1.90;99.90;1.70;101103.00;;;;4951894;28;100396;-67
2023/11/23 00:39:14;;;;;;;3.80;3.43;;;2.00;99.90;1.70;101095.00;;;;4948710;28;87893;-68
2023/11/23 00:41:39;;;;;;;4.87;3.97;;;1.90;99.90;1.80;101105.00;;;;4951070;28;87704;-66
2023/11/23 00:44:05;;;;;;;4.67;3.20;;;2.00;99.90;1.80;101101.00;;;;4950593;28;88862;-68
2023/11/23 00:46:31;;;;;;;4.87;3.33;;;1.90;99.90;1.80;101109.00;;;;4951259;28;88697;-66
2023/11/23 00:48:59;;;;;;;4.10;3.23;;;2.20;99.90;1.90;101101.00;;;;4953499;28;109720;-68
2023/11/23 00:51:26;;;;;;;5.17;2.93;;;2.10;99.90;2.00;101101.00;;;;4946438;28;87733;-67
2023/11/23 00:53:52;;;;;;;4.10;2.97;;;1.40;99.90;2.00;101103.00;;;;4956029;28;87849;-68
2023/11/23 00:56:18;;;;;;;4.03;3.03;;;2.20;99.90;2.00;101100.00;;;;4950489;28;105366;-69
2023/11/23 00:58:44;;;;;;;4.40;2.50;;;2.20;99.90;2.10;101093.00;;;;4936383;28;88408;-67
2023/11/23 01:01:16;;;;;;;5.87;2.60;;;2.20;99.90;2.10;101090.00;;;;4945765;28;88314;-67
2023/11/23 01:03:42;;;;;;;4.00;2.93;;;2.40;99.90;2.10;101089.00;;;;4951928;28;87856;-67
2023/11/23 01:06:07;;;;;;;3.70;2.70;;;2.40;99.90;2.20;101101.00;;;;4947850;28;106001;-67
2023/11/23 01:08:33;;;;;;;4.07;2.57;;;3.30;99.90;2.20;101095.00;;;;4945094;28;117420;-67
2023/11/23 01:11:02;;;;;;;3.30;2.37;;;3.20;99.90;2.20;101082.00;;;;4949408;28;107309;-67
2023/11/23 01:13:29;;;;;;;3.93;2.97;;;3.10;99.90;2.30;101082.00;;;;4948461;28;87902;-69
2023/11/23 01:15:55;;;;;;;3.47;2.93;;;2.50;99.90;2.30;101068.00;;;;4955543;28;87947;-66
2023/11/23 01:18:21;;;;;;;2.33;2.13;;;2.60;99.90;2.30;101058.00;;;;4952648;28;97342;-67
2023/11/23 01:20:48;;;;;;;4.50;2.37;;;2.50;99.90;2.40;101045.00;;;;4950750;28;88068;-68
2023/11/23 01:23:13;;;;;;;2.30;2.10;;;2.80;99.90;2.40;101039.00;;;;4948076;28;92157;-66
2023/11/23 01:25:39;;;;;;;2.97;2.67;;;2.70;99.90;2.40;101023.00;;;;4945477;28;118650;-67
2023/11/23 01:28:05;;;;;;;4.40;2.73;;;2.60;99.90;2.40;101027.00;;;;4948340;28;118383;-67
2023/11/23 01:30:31;;;;;;;4.03;2.23;;;2.60;99.90;2.40;101003.00;;;;4951186;28;87863;-69
2023/11/23 01:32:56;;;;;;;7.50;2.87;;;2.70;99.90;2.50;101007.00;;;;4945908;28;109030;-69
2023/11/23 01:35:22;;;;;;;3.47;2.53;;;3.10;99.90;2.50;101007.00;;;;4947708;28;115691;-67
2023/11/23 01:37:49;;;;;;;2.80;1.90;;;2.80;99.90;2.50;101000.00;;;;4948199;28;89563;-68
2023/11/23 01:40:16;;;;;;;5.00;2.10;;;2.70;99.90;2.60;100985.00;;;;4948981;28;100303;-67
2023/11/23 01:42:42;;;;;;;2.87;2.10;;;2.70;99.90;2.60;100985.00;;;;4947189;28;87966;-68
2023/11/23 01:45:09;;;;;;;2.23;2.00;;;2.80;99.90;2.60;100970.00;;;;4952109;28;88832;-68
2023/11/23 01:47:41;;;;;;;4.50;2.37;;;3.20;99.90;2.60;100971.00;;;;4951421;28;88465;-68
2023/11/23 01:50:09;;;;;;;3.77;2.47;;;2.80;99.90;2.70;100969.00;;;;4950167;28;86971;-69
2023/11/23 01:52:35;;;;;;;2.30;2.10;;;2.90;99.90;2.70;100978.00;;;;4949314;28;87666;-67
2023/11/23 01:55:03;;;;;;;3.57;2.13;;;2.90;99.90;2.70;100997.00;;;;4949728;28;117123;-68
2023/11/23 01:57:34;;;;;;;2.67;1.90;;;3.40;99.90;2.80;100995.00;;;;4948465;28;89001;-69
2023/11/23 02:00:02;;;;;;;2.67;2.17;;;3.00;99.90;2.80;100989.00;;;;4942238;28;97901;-67
2023/11/23 02:02:29;;;;;;;3.00;2.13;;;3.30;99.90;2.80;101008.00;;;;4948732;28;87890;-69
2023/11/23 02:04:58;;;;;;;2.73;2.00;;;3.00;99.90;2.80;100997.00;;;;4945113;28;87932;-67
2023/11/23 02:07:25;;;;;;;5.00;1.90;;;3.00;99.90;2.90;100987.00;;;;4951589;28;87962;-67
2023/11/23 02:09:51;;;;;;;3.30;1.77;;;3.00;99.90;2.90;100993.00;;;;4953013;28;87862;-67
2023/11/23 02:12:18;;;;;;;3.53;1.77;;;3.10;99.90;2.90;100980.00;;;;4948432;28;87831;-67
2023/11/23 02:14:44;;;;;;;2.03;1.83;;;3.20;99.90;2.90;100982.00;;;;4948417;28;116842;-69
2023/11/23 02:17:20;;;;;;;1.83;1.63;;;3.10;99.90;2.90;100962.00;;;;4950692;28;116196;-68
2023/11/23 02:19:48;;;;;;;2.63;2.00;;;3.10;99.90;3.00;100942.00;;;;4951842;28;88214;-70
2023/11/23 02:22:15;;;;;;;1.77;1.67;;;3.20;99.90;3.00;100951.00;;;;4952241;28;89736;-67
2023/11/23 02:24:42;;;;;;;5.53;2.60;;;3.20;99.90;3.00;100952.00;;;;4956117;28;89310;-70
2023/11/23 02:27:07;;;;;;;2.00;1.80;;;3.30;99.90;3.00;100945.00;;;;4950935;28;87914;-67
2023/11/23 02:29:34;;;;;;;2.80;1.87;;;3.20;99.90;3.10;100942.00;;;;4952988;28;109958;-69
2023/11/23 02:34:47;;;;;;;3.23;1.70;;;3.30;99.90;3.10;100949.00;;;;4950562;28;115739;-67
2023/11/23 02:37:13;;;;;;;2.30;1.80;;;3.40;99.90;3.10;100941.00;;;;4952067;28;118436;-68
2023/11/23 02:39:43;;;;;;;2.97;1.40;;;3.40;99.90;3.20;100942.00;;;;4948143;28;109191;-70
2023/11/23 02:42:09;;;;;;;1.93;1.70;;;3.40;99.90;3.20;100939.00;;;;4953250;28;87781;-69
2023/11/23 02:44:35;;;;;;;2.30;2.07;;;3.40;99.90;3.20;100941.00;;;;4951697;28;90239;-70
2023/11/23 02:47:01;;;;;;;2.87;1.60;;;3.40;99.90;3.20;100933.00;;;;4936468;28;90493;-70
2023/11/23 02:49:27;;;;;;;1.43;1.10;;;3.40;99.90;3.30;100923.00;;;;4952469;28;87901;-69
2023/11/23 02:51:53;;;;;;;2.93;1.73;;;3.50;99.90;3.30;100919.00;;;;4950316;28;102997;-69
2023/11/23 02:54:19;;;;;;;1.37;1.27;;;4.00;99.90;3.30;100914.00;;;;4960326;28;88116;-68
2023/11/23 02:56:44;;;;;;;2.00;1.63;;;3.50;99.90;3.30;100916.00;;;;4948240;28;116325;-71
2023/11/23 02:59:10;;;;;;;5.73;2.33;;;3.50;99.90;3.40;100913.00;;;;4955761;28;111469;-67
2023/11/23 03:01:36;;;;;;;4.83;2.43;;;3.60;99.90;3.30;100913.00;;;;4951367;28;110705;-69
2023/11/23 03:04:04;;;;;;;1.70;1.37;;;3.50;99.90;3.40;100930.00;;;;4952786;28;117087;-68
2023/11/23 03:06:30;;;;;;;1.87;1.77;;;3.50;99.90;3.40;100907.00;;;;4951146;28;88505;-70
2023/11/23 03:08:56;;;;;;;1.57;1.47;;;3.60;99.90;3.40;100911.00;;;;4956809;28;94113;-68
2023/11/23 03:11:26;;;;;;;1.30;1.17;;;3.50;99.90;3.40;100888.00;;;;4961947;28;97485;-69
2023/11/23 03:13:57;;;;;;;1.40;1.33;;;3.60;99.90;3.40;100890.00;;;;4957729;28;88553;-68
2023/11/23 03:16:24;;;;;;;2.47;1.83;;;3.60;99.90;3.40;100870.00;;;;4956116;28;88659;-68
2023/11/23 03:18:50;;;;;;;2.37;1.87;;;3.60;99.90;3.40;100880.00;;;;4955191;28;87981;-68
2023/11/23 03:21:16;;;;;;;2.33;1.87;;;3.60;99.90;3.40;100873.00;;;;4961467;28;87965;-69
2023/11/23 03:23:42;;;;;;;1.97;1.73;;;3.60;99.90;3.50;100875.00;;;;4960332;28;88847;-69
2023/11/23 03:26:09;;;;;;;2.23;1.70;;;3.60;99.90;3.50;100884.00;;;;4958959;28;88057;-69
2023/11/23 03:28:35;;;;;;;2.30;2.03;;;3.70;99.90;3.50;100887.00;;;;4954375;28;87253;-69
2023/11/23 03:31:01;;;;;;;1.80;1.47;;;3.70;99.90;3.50;100879.00;;;;4966495;28;100092;-69
2023/11/23 03:33:27;;;;;;;1.87;1.67;;;3.70;99.90;3.50;100870.00;;;;4949407;28;118588;-69
2023/11/23 03:35:53;;;;;;;2.10;1.53;;;3.70;99.90;3.50;100868.00;;;;4954878;28;88801;-67
2023/11/23 03:38:19;;;;;;;2.37;1.83;;;3.80;99.90;3.50;100861.00;;;;4956560;28;87975;-69
2023/11/23 03:40:45;;;;;;;1.80;1.37;;;3.70;99.90;3.50;100855.00;;;;4953766;28;87891;-69
2023/11/23 03:43:10;;;;;;;2.10;1.83;;;3.80;99.90;3.50;100855.00;;;;4957180;28;118202;-67
2023/11/23 03:45:36;;;;;;;2.97;2.67;;;3.70;99.90;3.50;100850.00;;;;4954459;28;98080;-68
2023/11/23 03:48:03;;;;;;;2.43;2.00;;;3.70;99.90;3.50;100847.00;;;;4953304;28;110214;-67
2023/11/23 03:50:28;;;;;;;1.83;1.30;;;3.70;99.90;3.60;100849.00;;;;4964111;28;87899;-69
2023/11/23 03:52:55;;;;;;;2.90;1.63;;;3.70;99.90;3.60;100839.00;;;;4955109;28;117706;-69
2023/11/23 03:55:20;;;;;;;2.87;2.03;;;3.80;99.90;3.60;100857.00;;;;4953014;28;88072;-68
2023/11/23 03:57:46;;;;;;;1.73;1.60;;;3.80;99.90;3.60;100832.00;;;;4952945;28;111161;-69
2023/11/23 04:00:13;;;;;;;3.30;2.10;;;3.80;99.90;3.60;100827.00;;;;4955562;28;107968;-67
2023/11/23 04:02:39;;;;;;;2.13;1.93;;;3.80;99.90;3.70;100847.00;;;;4955835;28;88180;-68
2023/11/23 04:05:05;;;;;;;2.13;1.90;;;4.60;99.90;3.70;100837.00;;;;4953088;28;89128;-68
2023/11/23 04:07:34;;;;;;;3.23;2.13;;;3.80;99.90;3.70;100825.00;;;;4958613;28;88125;-69
2023/11/23 04:10:00;;;;;;;2.50;1.93;;;3.90;99.90;3.70;100835.00;;;;4952156;28;87875;-68
2023/11/23 04:12:26;;;;;;;2.93;2.20;;;3.90;99.90;3.80;100819.00;;;;4957155;28;104334;-68
2023/11/23 04:14:52;;;;;;;3.33;1.83;;;3.90;99.90;3.80;100822.00;;;;4955744;28;117047;-71
2023/11/23 04:17:18;;;;;;;3.47;1.80;;;4.00;99.90;3.80;100824.00;;;;4954130;28;87294;-68
2023/11/23 04:19:43;;;;;;;1.87;1.67;;;4.00;99.90;3.90;100820.00;;;;4948434;28;108858;-69
2023/11/23 04:22:09;;;;;;;2.30;1.90;;;4.00;99.90;3.90;100828.00;;;;4954960;28;88124;-68
2023/11/23 04:24:40;;;;;;;2.03;1.83;;;4.10;99.90;4.00;100828.00;;;;4958894;28;115788;-70
2023/11/23 04:27:06;;;;;;;3.33;1.97;;;4.20;99.90;4.00;100816.00;;;;4967480;28;88024;-70
2023/11/23 04:29:32;;;;;;;2.50;1.87;;;4.20;99.90;4.00;100817.00;;;;4957340;28;99018;-70
2023/11/23 04:31:57;;;;;;;3.40;1.67;;;4.30;99.90;4.10;100809.00;;;;4947207;28;117783;-68
2023/11/23 04:34:23;;;;;;;3.10;1.80;;;4.20;99.90;4.10;100813.00;;;;4950273;28;117645;-68
2023/11/23 04:36:49;;;;;;;2.13;1.40;;;4.20;99.90;4.10;100819.00;;;;4956676;28;109727;-68
2023/11/23 04:39:15;;;;;;;2.10;1.90;;;4.30;99.90;4.20;100803.00;;;;4954231;28;87914;-69
2023/11/23 04:41:40;;;;;;;5.33;1.90;;;4.30;99.90;4.20;100796.00;;;;4957984;28;116369;-67
2023/11/23 04:44:06;;;;;;;2.63;1.73;;;5.00;99.90;4.20;100810.00;;;;4950672;28;116821;-70
2023/11/23 04:46:33;;;;;;;1.90;1.60;;;4.30;99.90;4.20;100805.00;;;;4958965;28;87750;-69
2023/11/23 04:48:59;;;;;;;1.63;1.53;;;4.40;99.90;4.30;100801.00;;;;4953401;28;108318;-70
2023/11/23 04:51:24;;;;;;;2.70;1.83;;;5.20;99.90;4.30;100803.00;;;;4954462;28;108342;-69
2023/11/23 04:53:50;;;;;;;1.50;1.40;;;4.60;99.90;4.30;100797.00;;;;4953979;28;118289;-69
2023/11/23 04:56:16;;;;;;;1.90;1.70;;;4.50;99.90;4.30;100796.00;;;;4952808;28;88122;-68
2023/11/23 04:58:41;;;;;;;1.97;1.47;;;4.40;99.90;4.30;100791.00;;;;4956380;28;87885;-69
2023/11/23 05:01:07;;;;;;;3.77;1.97;;;5.20;99.90;4.40;100763.00;;;;4957011;28;117617;-68
2023/11/23 05:03:33;;;;;;;1.43;1.20;;;4.50;99.90;4.40;100765.00;;;;4956380;28;87786;-69
2023/11/23 05:05:59;;;;;;;3.00;1.90;;;4.50;99.90;4.40;100769.00;;;;4956270;28;87524;-68
2023/11/23 05:08:24;;;;;;;3.23;1.90;;;4.60;99.90;4.50;100780.00;;;;4956192;28;106674;-68
2023/11/23 05:10:50;;;;;;;2.57;1.50;;;4.70;99.90;4.50;100765.00;;;;4958236;28;89129;-70
2023/11/23 05:13:16;;;;;;;2.13;1.80;;;4.60;99.90;4.50;100771.00;;;;4951006;28;88743;-67
2023/11/23 05:15:46;;;;;;;2.63;1.67;;;4.70;99.90;4.50;100777.00;;;;4950940;28;110927;-68
2023/11/23 05:18:16;;;;;;;2.47;1.63;;;4.70;99.90;4.50;100775.00;;;;4954313;28;87671;-69
2023/11/23 05:20:42;;;;;;;2.10;1.70;;;4.70;99.90;4.60;100769.00;;;;4958401;28;88885;-69
2023/11/23 05:23:08;;;;;;;2.33;2.13;;;4.80;99.90;4.60;100762.00;;;;4962573;28;117087;-68
2023/11/23 05:25:34;;;;;;;2.93;1.90;;;4.80;99.90;4.60;100767.00;;;;4954010;28;109580;-69
2023/11/23 05:27:59;;;;;;;1.53;1.20;;;5.30;99.90;4.60;100758.00;;;;4946563;28;109088;-70
2023/11/23 05:30:27;;;;;;;2.30;1.37;;;5.50;99.90;4.60;100773.00;;;;4952047;28;116969;-70
2023/11/23 05:32:53;;;;;;;2.23;1.83;;;4.70;99.90;4.60;100777.00;;;;4949696;28;106562;-69
2023/11/23 05:35:18;;;;;;;1.93;1.77;;;4.80;99.90;4.70;100776.00;;;;4949032;28;109879;-69
2023/11/23 05:37:44;;;;;;;2.07;1.50;;;4.90;99.90;4.70;100760.00;;;;4949283;28;109509;-69
2023/11/23 05:40:12;;;;;;;1.87;1.30;;;4.90;99.90;4.70;100762.00;;;;4947922;28;117529;-68
2023/11/23 05:42:39;;;;;;;3.03;1.50;;;4.90;99.90;4.70;100752.00;;;;4954225;28;88826;-69
2023/11/23 05:45:06;;;;;;;2.37;2.17;;;4.90;99.90;4.60;100741.00;;;;4951398;28;87590;-69
2023/11/23 05:47:32;;;;;;;2.13;1.57;;;4.90;99.90;4.60;100759.00;;;;4949023;28;87965;-67
2023/11/23 05:50:01;;;;;;;2.63;1.73;;;5.60;99.90;4.60;100761.00;;;;4943447;28;116573;-68
2023/11/23 05:52:28;;;;;;;1.93;1.37;;;4.80;99.90;4.60;100760.00;;;;4950680;28;88525;-71
2023/11/23 05:54:57;;;;;;;3.03;1.87;;;4.80;99.90;4.60;100750.00;;;;4943258;28;87483;-69
2023/11/23 05:57:29;;;;;;;4.93;2.00;;;5.00;99.90;4.60;100745.00;;;;4950404;28;87871;-71
2023/11/23 05:59:54;;;;;;;1.63;1.37;;;5.00;99.90;4.60;100744.00;;;;4956825;28;87973;-68
2023/11/23 06:02:20;;;;;;;1.77;1.50;;;5.20;99.90;4.60;100747.00;;;;4951340;28;109976;-69
2023/11/23 06:04:47;;;;;;;3.73;2.10;;;5.30;99.90;4.60;100752.00;;;;4938909;28;99398;-67
2023/11/23 06:07:13;;;;;;;2.40;1.70;;;4.80;99.90;4.70;100750.00;;;;4947883;28;87613;-69
2023/11/23 06:09:40;;;;;;;3.30;2.00;;;4.80;99.90;4.70;100765.00;;;;4952831;28;88656;-70
2023/11/23 06:12:06;;;;;;;4.13;1.97;;;4.90;99.90;4.70;100760.00;;;;4954925;28;106881;-68
2023/11/23 06:14:32;;;;;;;2.27;1.70;;;4.90;99.90;4.80;100754.00;;;;4949651;28;100599;-69
2023/11/23 06:16:58;;;;;;;1.83;1.27;;;5.00;99.90;4.80;100746.00;;;;4956452;28;89781;-69
2023/11/23 06:19:23;;;;;;;3.30;1.83;;;4.90;99.90;4.80;100736.00;;;;4961633;28;116113;-69
2023/11/23 06:21:50;;;;;;;1.40;1.30;;;4.90;99.90;4.80;100741.00;;;;4955999;28;98947;-71
2023/11/23 06:24:17;;;;;;;2.43;1.73;;;5.00;99.90;4.80;100728.00;;;;4948574;28;88072;-69
2023/11/23 06:26:43;;;;;;;3.80;2.03;;;4.90;99.90;4.80;100732.00;;;;4956212;28;88673;-70
2023/11/23 06:29:08;;;;;;;1.43;1.30;;;5.00;99.90;4.80;100707.00;;;;4958515;28;98908;-71
2023/11/23 06:31:34;;;;;;;3.07;1.70;;;5.00;99.90;4.70;100710.00;;;;4950934;28;116352;-70
2023/11/23 06:34:00;;;;;;;3.13;1.90;;;4.90;99.90;4.60;100713.00;;;;4952589;28;100987;-68
2023/11/23 06:36:26;;;;;;;2.40;1.97;;;4.80;99.90;4.60;100714.00;;;;4948189;28;106686;-69
2023/11/23 06:38:51;;;;;;;1.57;1.47;;;4.80;99.90;4.60;100714.00;;;;4963579;28;117217;-70
2023/11/23 06:41:21;;;;;;;1.73;1.47;;;4.80;99.90;4.60;100713.00;;;;4954999;28;117610;-69
2023/11/23 06:43:51;;;;;;;3.77;1.90;;;4.90;99.90;4.70;100712.00;;;;4956670;28;87203;-68
2023/11/23 06:46:19;;;;;;;2.43;1.57;;;4.90;99.90;4.80;100715.00;;;;4953714;28;101622;-69
2023/11/23 06:48:45;;;;;;;2.43;1.83;;;4.90;99.90;4.80;100707.00;;;;4954580;28;88726;-69
2023/11/23 06:51:11;;;;;;;3.47;1.73;;;5.00;99.90;4.90;100703.00;;;;4956099;28;88699;-69
2023/11/23 06:53:43;;;;;;;5.60;1.80;;;4.80;99.90;5.00;100682.00;;;;4958299;28;98641;-68
2023/11/23 06:56:13;;;;;;;1.97;1.40;;;5.10;99.90;5.00;100692.00;;;;4964940;28;87821;-69
2023/11/23 06:58:46;;;;;;;1.67;1.57;;;5.80;99.90;5.00;100682.00;;;;4949219;28;88278;-68
2023/11/23 07:01:12;;;;;;;1.87;1.73;;;5.90;99.90;5.10;100691.00;;;;4955301;28;88267;-68
2023/11/23 07:03:38;;;;;;;4.77;2.53;;;5.60;99.90;5.10;100699.00;;;;4960516;28;87766;-67
2023/11/23 07:06:05;;;;;;;2.57;1.37;;;5.20;99.90;5.20;100700.00;;;;4936223;28;87904;-69
2023/11/23 07:08:35;;;;;;;3.27;2.03;;;5.30;99.90;5.20;100682.00;;;;4954928;28;110724;-67
2023/11/23 07:11:06;;;;;;;1.20;1.10;;;5.30;99.90;5.20;100683.00;;;;4952593;28;87832;-67
2023/11/23 07:13:32;;;;;;;3.23;1.70;;;6.10;99.90;5.20;100681.00;;;;4958748;28;87899;-69
2023/11/23 07:15:59;;;;;;;4.23;2.47;;;5.40;99.90;5.20;100674.00;;;;4961088;28;88791;-69
2023/11/23 07:18:26;;;;;;;2.37;2.03;;;5.40;99.90;5.20;100691.00;;;;4957885;28;87945;-70
2023/11/23 07:20:58;;;;;;;3.50;1.70;;;5.40;99.90;5.30;100671.00;;;;4953156;28;88057;-69
2023/11/23 07:23:23;;;;;;;3.07;2.00;;;5.50;99.90;5.30;100679.00;;;;4952998;28;87878;-68
2023/11/23 07:25:49;;;;;;;4.63;2.27;;;6.10;99.90;5.30;100683.00;;;;4956243;28;87813;-72
2023/11/23 07:28:16;;;;;;;5.00;1.93;;;5.50;99.90;5.30;100668.00;;;;4958625;28;90829;-69
2023/11/23 07:30:42;;;;;;;2.33;1.77;;;5.40;99.90;5.20;100665.00;;;;4961888;28;88033;-68
2023/11/23 07:33:08;;;;;;;4.17;1.73;;;5.40;99.90;5.20;100660.00;;;;4956529;28;87231;-68
2023/11/23 07:35:35;;;;;;;1.43;1.33;;;5.40;99.90;5.20;100654.00;;;;4957505;28;94266;-70
2023/11/23 07:38:04;;;;;;;2.97;1.73;;;5.30;99.90;5.10;100658.00;;;;4954426;28;88338;-69
2023/11/23 07:40:31;;;;;;;2.10;1.60;;;6.00;99.90;5.10;100664.00;;;;4954269;28;88729;-67
2023/11/23 07:42:57;;;;;;;2.43;1.90;;;5.80;99.90;5.10;100664.00;;;;4958470;28;87976;-69
2023/11/23 07:45:22;;;;;;;2.83;2.23;;;5.70;99.90;5.10;100653.00;;;;4955488;28;88010;-69
2023/11/23 07:47:48;;;;;;;2.37;1.80;;;5.60;99.90;5.20;100649.00;;;;4958073;28;89057;-70
2023/11/23 07:50:15;;;;;;;3.60;2.43;;;5.40;99.90;5.30;100647.00;;;;4956641;28;117775;-70
2023/11/23 07:52:43;;;;;;;2.83;2.00;;;5.40;99.90;5.30;100640.00;;;;4966450;28;87903;-68
2023/11/23 07:55:10;;;;;;;4.00;2.23;;;6.00;99.90;5.30;100636.00;;;;4952942;28;97086;-69
2023/11/23 07:57:36;;;;;;;1.87;1.60;;;5.50;99.90;5.40;100614.00;;;;4957861;28;88378;-69
2023/11/23 08:00:04;;;;;;;2.40;1.43;;;5.50;99.90;5.40;100635.00;;;;4958573;28;88082;-70
2023/11/23 08:02:30;;;;;;;5.37;2.70;;;5.60;99.90;5.40;100632.00;;;;4952300;28;87964;-69
2023/11/23 08:04:57;;;;;;;3.13;2.00;;;5.50;99.90;5.50;100643.00;;;;4952771;28;109733;-69
2023/11/23 08:07:24;;;;;;;4.37;2.20;;;6.10;99.90;5.50;100613.00;;;;4952944;28;105861;-70
2023/11/23 08:09:50;;;;;;;3.20;1.87;;;5.60;99.90;5.60;100615.00;;;;4965729;27;90351;-69
2023/11/23 08:12:15;;;;;;;2.63;2.10;;;5.90;99.90;5.60;100631.00;;;;4962578;28;88109;-70
2023/11/23 08:14:41;;;;;;;1.90;1.57;;;5.70;99.90;5.60;100631.00;;;;4955906;28;87888;-68
2023/11/23 08:17:08;;;;;;;2.90;2.37;;;6.00;99.90;5.60;100626.00;;;;4949753;28;117495;-69
2023/11/23 08:19:35;;;;;;;2.40;2.20;;;6.30;99.90;5.70;100618.00;;;;4957606;28;88170;-70
2023/11/23 08:22:02;;;;;;;4.50;2.17;;;5.80;99.90;5.70;100627.00;;;;4944086;28;87050;-71
2023/11/23 08:24:28;;;;;;;3.93;2.40;;;5.80;99.90;5.70;100631.00;;;;4958524;28;88284;-69
2023/11/23 08:26:54;;;;;;;3.43;1.73;;;5.90;99.90;5.70;100631.00;;;;4952041;28;108428;-69
2023/11/23 08:29:20;;;;;;;2.90;2.50;;;6.30;99.90;5.70;100613.00;;;;4953918;28;88817;-69
2023/11/23 08:31:46;;;;;;;3.83;1.93;;;5.80;99.90;5.70;100620.00;;;;4961932;28;87967;-69
2023/11/23 08:34:12;;;;;;;3.63;2.17;;;5.80;99.90;5.80;100609.00;;;;4954467;28;108169;-68
2023/11/23 08:36:41;;;;;;;2.97;2.20;;;6.40;99.90;5.80;100624.00;;;;4954146;28;117790;-70
2023/11/23 08:39:11;;;;;;;5.03;1.90;;;5.90;99.90;5.80;100610.00;;;;4953158;28;88999;-68
2023/11/23 08:41:41;;;;;;;7.27;2.60;;;6.00;99.90;5.80;100619.00;;;;4950267;28;87808;-69
2023/11/23 08:44:07;;;;;;;3.27;2.27;;;6.00;99.90;5.80;100611.00;;;;4956071;28;87751;-69
2023/11/23 08:46:33;;;;;;;3.97;2.30;;;6.00;99.90;5.80;100616.00;;;;4954499;28;88305;-69
2023/11/23 08:49:02;;;;;;;2.37;1.80;;;6.50;99.90;5.80;100610.00;;;;4965365;28;87987;-70
2023/11/23 08:51:29;;;;;;;2.40;2.03;;;5.90;99.90;5.90;100601.00;;;;4951817;28;105079;-68
2023/11/23 08:53:55;;;;;;;3.50;1.90;;;6.70;99.90;5.90;100596.00;;;;4954198;28;88899;-70
2023/11/23 08:56:21;;;;;;;2.17;1.80;;;6.00;99.90;5.90;100591.00;;;;4958333;28;107546;-70
2023/11/23 08:58:48;;;;;;;3.43;1.80;;;6.00;99.90;5.90;100592.00;;;;4954479;28;88236;-70
2023/11/23 09:01:14;;;;;;;2.60;2.37;;;6.00;99.90;5.90;100586.00;;;;4952659;28;87900;-69
2023/11/23 09:03:40;;;;;;;2.50;2.30;;;6.00;99.90;6.00;100577.00;;;;4953933;28;87994;-69
2023/11/23 09:06:08;;;;;;;5.37;1.90;;;6.10;99.90;6.00;100589.00;;;;4952190;28;90815;-69
2023/11/23 09:08:35;;;;;;;2.97;2.07;;;6.10;99.90;6.00;100592.00;;;;4967455;28;88542;-68
2023/11/23 09:11:01;;;;;;;4.33;2.13;;;6.70;99.90;6.10;100566.00;;;;4956071;28;87254;-70
2023/11/23 09:13:27;;;;;;;2.83;1.80;;;6.20;99.90;6.10;100568.00;;;;4954236;28;97708;-70
2023/11/23 09:15:55;;;;;;;2.83;2.43;;;6.30;99.90;6.10;100566.00;;;;4951511;28;88613;-70
2023/11/23 09:18:22;;;;;;;2.73;1.97;;;6.50;99.90;6.10;100563.00;;;;4961186;28;90426;-70
2023/11/23 09:20:48;;;;;;;3.83;2.07;;;6.30;99.90;6.10;100560.00;;;;4960967;28;87947;-69
2023/11/23 09:23:15;;;;;;;2.33;1.63;;;6.50;99.90;6.20;100560.00;;;;4956419;28;88435;-70
2023/11/23 09:25:41;;;;;;;3.10;2.23;;;6.60;99.90;6.20;100555.00;;;;4953144;28;116493;-70
2023/11/23 09:28:08;;;;;;;3.63;1.80;;;6.40;99.90;6.20;100557.00;;;;4956089;28;113651;-68
2023/11/23 09:30:34;;;;;;;2.33;1.90;;;6.40;99.90;6.30;100555.00;;;;4953164;28;88288;-69
2023/11/23 09:32:59;;;;;;;4.37;2.20;;;7.00;99.90;6.30;100533.00;;;;4954397;28;100454;-70
2023/11/23 09:35:25;;;;;;;3.33;1.63;;;6.50;99.90;6.40;100535.00;;;;4952773;28;87289;-69
2023/11/23 09:37:54;;;;;;;3.03;2.27;;;6.90;99.90;6.50;100506.00;;;;4951070;28;115080;-70
2023/11/23 09:40:20;;;;;;;3.17;1.63;;;6.60;99.90;6.50;100493.00;;;;4952777;28;87805;-69
2023/11/23 09:42:49;;;;;;;4.83;1.87;;;6.60;99.90;6.60;100502.00;;;;4944750;28;88888;-69
2023/11/23 09:45:19;;;;;;;1.80;1.67;;;6.70;99.90;6.70;100503.00;;;;4962014;28;116206;-68
2023/11/23 09:47:48;;;;;;;1.50;1.40;;;6.80;99.90;6.70;100483.00;;;;4955308;28;88672;-68
2023/11/23 09:50:14;;;;;;;2.93;2.00;;;6.80;99.90;6.80;100476.00;;;;4952428;28;99847;-70
2023/11/23 09:52:42;;;;;;;1.90;1.23;;;6.90;99.90;6.90;100485.00;;;;4955781;28;101059;-69
2023/11/23 09:55:10;;;;;;;2.33;1.73;;;7.00;99.90;6.90;100481.00;;;;4952993;28;87824;-70
2023/11/23 09:57:36;;;;;;;2.43;1.83;;;7.00;99.90;7.00;100461.00;;;;4955801;28;87835;-69
2023/11/23 10:00:09;;;;;;;3.30;1.93;;;7.30;99.90;7.10;100458.00;;;;4959274;28;103822;-69
2023/11/23 10:02:36;;;;;;;2.93;2.13;;;7.20;99.90;7.10;100460.00;;;;4951586;28;87761;-68
2023/11/23 10:05:13;;;;;;;3.40;2.20;;;7.30;99.90;7.20;100445.00;;;;4964332;28;88290;-66
2023/11/23 10:07:42;;;;;;;2.93;1.90;;;8.00;99.90;7.20;100448.00;;;;4951191;28;88949;-69
2023/11/23 10:10:12;;;;;;;2.20;1.70;;;7.30;99.90;7.30;100444.00;;;;4953844;28;88034;-68
2023/11/23 10:12:38;;;;;;;3.93;1.87;;;7.40;99.90;7.30;100422.00;;;;4957819;28;87834;-68
2023/11/23 10:15:06;;;;;;;1.97;1.40;;;7.50;99.90;7.40;100414.00;;;;4953546;28;89459;-67
2023/11/23 10:17:33;;;;;;;3.17;2.03;;;7.50;99.90;7.40;100406.00;;;;4954390;28;88109;-68
2023/11/23 10:20:12;;;;;;;3.57;1.90;;;7.60;99.90;7.50;100405.00;;;;4950174;28;98822;-68
2023/11/23 10:22:42;;;;;;;2.80;1.93;;;7.60;99.90;7.60;100383.00;;;;4963048;28;87888;-70
2023/11/23 10:25:08;;;;;;;4.50;2.10;;;7.70;99.90;7.60;100388.00;;;;4954863;28;88136;-67
2023/11/23 10:27:35;;;;;;;4.93;1.63;;;7.70;99.90;7.70;100372.00;;;;4950422;28;87871;-70
2023/11/23 10:30:04;;;;;;;3.83;1.90;;;7.80;99.90;7.70;100374.00;;;;4952162;28;88062;-69
2023/11/23 10:32:32;;;;;;;2.93;1.90;;;7.80;99.90;7.70;100355.00;;;;4954499;28;88935;-69
2023/11/23 10:35:07;;;;;;;1.40;1.30;;;7.90;99.90;7.80;100352.00;;;;4951740;28;88956;-69
2023/11/23 10:37:33;;;;;;;2.43;1.40;;;7.90;99.90;7.80;100359.00;;;;4956410;28;88559;-70
2023/11/23 10:40:03;;;;;;;2.43;1.73;;;7.90;99.90;7.90;100338.00;;;;4951902;28;87830;-69
2023/11/23 10:42:32;;;;;;;6.43;2.53;;;7.90;99.90;7.90;100342.00;;;;4962200;28;87530;-70
2023/11/23 10:44:58;;;;;;;2.33;1.63;;;7.90;99.90;7.90;100332.00;;;;4952033;28;88023;-69
2023/11/23 10:47:28;;;;;;;3.47;1.77;;;8.10;99.90;8.00;100325.00;;;;4954810;28;88358;-68
2023/11/23 10:49:57;;;;;;;2.67;1.57;;;8.10;99.90;8.00;100316.00;;;;4951045;28;87417;-69
2023/11/23 10:52:23;;;;;;;2.23;1.50;;;8.10;99.90;8.10;100312.00;;;;4960021;28;87835;-69
2023/11/23 10:54:49;;;;;;;6.80;1.97;;;8.20;99.90;8.10;100314.00;;;;4952643;28;117542;-70
2023/11/23 10:57:16;;;;;;;3.13;1.73;;;8.20;99.90;8.10;100309.00;;;;4953238;28;88851;-68
2023/11/23 10:59:44;;;;;;;2.73;1.73;;;8.20;99.90;8.10;100296.00;;;;4953299;28;110708;-68